Time;durP1;ratioP1;P1;durP2;ratioP2;P2;SDS_P1;SDS_P2;PMS_P1;PMS_P2;Temp;Humidity;BMP_temperature;BMP_pressure;BME280_temperature;BME280_humidity;BME280_pressure;Samples;Min_cycle;Max_cycle;Signal;HPM_P1;HPM_P2
2021/11/30 00:00:17;;;;;;;30.30;15.57;;;;;;;0.34;100.00;99301.31;5075558;28;20048;-73
2021/11/30 00:02:45;;;;;;;31.40;15.65;;;;;;;0.33;100.00;99302.22;5075834;28;20045;-72
2021/11/30 00:05:13;;;;;;;31.25;16.77;;;;;;;0.27;100.00;99311.13;5075476;28;20049;-72
2021/11/30 00:07:42;;;;;;;30.05;14.95;;;;;;;0.33;100.00;99309.22;5075775;28;20040;-74
2021/11/30 00:12:59;;;;;;;28.92;15.75;;;;;;;0.36;100.00;99317.00;5075759;28;20049;-72
2021/11/30 00:15:27;;;;;;;32.78;16.73;;;;;;;0.36;100.00;99311.75;5075537;28;20075;-71
2021/11/30 00:17:55;;;;;;;31.73;15.93;;;;;;;0.37;100.00;99313.44;5075643;28;20041;-72
2021/11/30 00:20:24;;;;;;;33.38;16.80;;;;;;;0.33;100.00;99319.72;5075234;28;20040;-72
2021/11/30 00:22:52;;;;;;;31.10;16.95;;;;;;;0.38;100.00;99321.25;5075455;28;20072;-72
2021/11/30 00:25:20;;;;;;;30.77;16.17;;;;;;;0.38;100.00;99329.13;5074757;28;20102;-72
2021/11/30 00:27:48;;;;;;;28.98;16.17;;;;;;;0.51;100.00;99322.59;5075408;28;20137;-71
2021/11/30 00:30:18;;;;;;;30.45;16.23;;;;;;;0.53;100.00;99317.28;5074763;28;20448;-72
2021/11/30 00:32:51;;;;;;;31.85;17.27;;;;;;;0.50;100.00;99336.63;5075007;28;20580;-74
2021/11/30 00:35:22;;;;;;;27.92;16.15;;;;;;;0.54;100.00;99335.59;5074956;28;20044;-72
2021/11/30 00:37:50;;;;;;;32.95;16.52;;;;;;;0.57;100.00;99338.09;5075243;28;20056;-72
2021/11/30 00:40:19;;;;;;;26.20;14.52;;;;;;;0.64;100.00;99338.75;5074885;28;20501;-73
2021/11/30 00:42:47;;;;;;;28.42;15.30;;;;;;;0.65;100.00;99350.13;5075258;28;20044;-73
2021/11/30 00:45:17;;;;;;;27.60;14.48;;;;;;;0.75;100.00;99341.88;5074782;28;20474;-73
2021/11/30 00:47:51;;;;;;;26.48;14.60;;;;;;;0.69;100.00;99346.50;5074899;28;20068;-72
2021/11/30 00:50:24;;;;;;;25.10;14.20;;;;;;;0.72;100.00;99349.84;5074819;28;20040;-73
2021/11/30 00:52:54;;;;;;;24.98;14.07;;;;;;;0.67;100.00;99362.25;5075018;28;20462;-72
2021/11/30 00:55:23;;;;;;;25.85;14.38;;;;;;;0.68;100.00;99371.03;5074692;28;20470;-73
2021/11/30 00:57:51;;;;;;;25.20;13.88;;;;;;;0.66;100.00;99355.31;5074634;28;20048;-71
2021/11/30 01:00:21;;;;;;;27.95;15.63;;;;;;;0.57;100.00;99355.63;5074103;28;20500;-72
2021/11/30 01:02:50;;;;;;;26.90;15.32;;;;;;;0.65;100.00;99361.47;5074390;28;20561;-71
2021/11/30 01:05:19;;;;;;;22.35;11.73;;;;;;;0.67;100.00;99369.28;5074365;28;20144;-71
2021/11/30 01:07:47;;;;;;;23.83;13.60;;;;;;;0.71;100.00;99365.66;5074442;28;20093;-71
2021/11/30 01:10:17;;;;;;;23.25;13.38;;;;;;;0.74;100.00;99365.56;5074025;28;20052;-71
2021/11/30 01:12:46;;;;;;;15.52;8.90;;;;;;;0.81;100.00;99369.69;5074646;28;20049;-71
2021/11/30 01:15:18;;;;;;;22.25;12.30;;;;;;;0.84;100.00;99380.94;5074156;28;20048;-72
2021/11/30 01:17:47;;;;;;;19.27;10.82;;;;;;;0.89;100.00;99365.03;5074334;28;20047;-70
2021/11/30 01:20:18;;;;;;;23.05;12.55;;;;;;;0.88;100.00;99373.81;5073749;28;20478;-71
2021/11/30 01:22:47;;;;;;;28.17;13.50;;;;;;;0.81;100.00;99382.81;5074419;28;20097;-76
2021/11/30 01:25:16;;;;;;;20.77;12.48;;;;;;;0.78;100.00;99377.69;5073586;28;20132;-76
2021/11/30 01:27:46;;;;;;;20.77;11.20;;;;;;;0.68;100.00;99377.13;5074284;28;20068;-76
2021/11/30 01:30:16;;;;;;;20.10;11.13;;;;;;;0.70;100.00;99374.44;5073957;28;20044;-76
2021/11/30 01:32:46;;;;;;;15.13;7.53;;;;;;;0.67;100.00;99361.41;5074026;28;20066;-74
2021/11/30 01:35:18;;;;;;;12.18;7.03;;;;;;;0.68;100.00;99365.78;5073842;28;20040;-76
2021/11/30 01:37:48;;;;;;;20.77;12.23;;;;;;;0.62;100.00;99376.47;5073944;28;20094;-75
2021/11/30 01:40:19;;;;;;;18.10;9.82;;;;;;;0.65;100.00;99376.34;5073502;28;20075;-74
2021/11/30 01:42:50;;;;;;;18.42;10.00;;;;;;;0.61;100.00;99373.00;5074125;28;20051;-75
2021/11/30 01:45:29;;;;;;;20.10;10.77;;;;;;;0.56;100.00;99370.50;5073646;28;20044;-76
2021/11/30 01:50:45;;;;;;;20.13;11.82;;;;;;;0.53;100.00;99365.38;5073412;28;20093;-76
2021/11/30 01:53:13;;;;;;;21.00;12.23;;;;;;;0.53;100.00;99368.00;5073451;28;20043;-76
2021/11/30 01:55:44;;;;;;;19.70;11.10;;;;;;;0.61;100.00;99370.38;5073875;28;20127;-74
2021/11/30 01:58:15;;;;;;;20.08;9.75;;;;;;;0.55;100.00;99366.16;5073434;28;20044;-74
2021/11/30 02:00:45;;;;;;;10.85;6.38;;;;;;;0.55;100.00;99360.06;5072445;28;20542;-72
2021/11/30 02:03:14;;;;;;;13.05;6.13;;;;;;;0.60;100.00;99367.81;5074614;28;20424;-72
2021/11/30 02:05:43;;;;;;;15.82;8.82;;;;;;;0.60;100.00;99368.66;5073745;28;20055;-71
2021/11/30 02:08:13;;;;;;;14.35;8.73;;;;;;;0.57;100.00;99372.22;5073210;28;20075;-73
2021/11/30 02:10:41;;;;;;;12.38;7.55;;;;;;;0.56;100.00;99378.38;5073506;28;20055;-72
2021/11/30 02:13:10;;;;;;;15.32;9.07;;;;;;;0.52;100.00;99379.41;5073290;28;20049;-77
2021/11/30 02:15:41;;;;;;;16.05;8.63;;;;;;;0.56;100.00;99367.88;5074554;28;20441;-75
2021/11/30 02:18:14;;;;;;;14.68;8.50;;;;;;;0.51;100.00;99398.69;5073745;28;20077;-74
2021/11/30 02:20:45;;;;;;;16.38;10.18;;;;;;;0.42;100.00;99385.00;5073554;28;20040;-75
2021/11/30 02:23:24;;;;;;;14.65;9.02;;;;;;;0.45;100.00;99393.63;5072806;28;20400;-75
2021/11/30 02:25:53;;;;;;;15.25;9.32;;;;;;;0.47;100.00;99393.56;5072968;28;20040;-74
2021/11/30 02:28:21;;;;;;;11.98;6.60;;;;;;;0.50;100.00;99396.97;5073033;28;20136;-75
2021/11/30 02:30:49;;;;;;;12.82;8.13;;;;;;;0.48;100.00;99405.78;5073215;28;20051;-74
2021/11/30 02:33:17;;;;;;;10.60;5.53;;;;;;;0.45;100.00;99400.63;5072567;28;20123;-73
2021/11/30 02:35:47;;;;;;;13.43;6.57;;;;;;;0.46;100.00;99411.09;5073149;28;20048;-72
2021/11/30 02:38:16;;;;;;;13.15;8.43;;;;;;;0.49;100.00;99408.38;5071482;28;20405;-74
2021/11/30 02:40:44;;;;;;;12.48;7.30;;;;;;;0.50;100.00;99425.84;5072827;28;20169;-73
2021/11/30 02:43:13;;;;;;;14.52;9.13;;;;;;;0.49;100.00;99421.50;5072539;28;20048;-77
2021/11/30 02:45:41;;;;;;;14.63;9.10;;;;;;;0.49;100.00;99413.63;5073037;28;20114;-75
2021/11/30 02:48:12;;;;;;;14.77;9.13;;;;;;;0.42;100.00;99416.50;5073038;28;20045;-75
2021/11/30 02:50:42;;;;;;;14.70;8.85;;;;;;;0.41;100.00;99420.03;5073080;28;20071;-72
2021/11/30 02:53:16;;;;;;;15.35;9.02;;;;;;;0.37;100.00;99419.25;5072997;28;20055;-74
2021/11/30 02:55:46;;;;;;;13.93;8.55;;;;;;;0.41;100.00;99423.50;5073398;28;20079;-75
2021/11/30 02:58:15;;;;;;;13.80;7.72;;;;;;;0.39;100.00;99427.09;5073022;28;20044;-75
2021/11/30 03:00:44;;;;;;;14.27;8.23;;;;;;;0.38;100.00;99438.47;5073054;28;20440;-73
2021/11/30 03:03:13;;;;;;;13.50;8.48;;;;;;;0.45;100.00;99435.59;5075407;28;20052;-75
2021/11/30 03:05:42;;;;;;;12.77;8.10;;;;;;;0.37;100.00;99440.22;5076870;28;20050;-75
2021/11/30 03:08:12;;;;;;;13.15;7.72;;;;;;;0.43;100.00;99440.06;5076923;28;20477;-75
2021/11/30 03:10:40;;;;;;;16.33;7.75;;;;;;;0.38;100.00;99446.34;5076594;28;20056;-75
2021/11/30 03:13:09;;;;;;;10.20;6.15;;;;;;;0.55;100.00;99450.16;5076720;28;20135;-72
2021/11/30 03:15:39;;;;;;;11.75;7.13;;;;;;;0.61;100.00;99446.47;5076794;28;20436;-72
2021/11/30 03:18:08;;;;;;;12.50;7.10;;;;;;;0.63;100.00;99441.19;5076765;28;20040;-71
2021/11/30 03:20:36;;;;;;;11.98;7.38;;;;;;;0.60;100.00;99447.38;5076429;28;20051;-71
2021/11/30 03:23:08;;;;;;;11.07;6.72;;;;;;;0.52;100.00;99466.00;5076450;28;20382;-72
2021/11/30 03:25:38;;;;;;;11.65;6.50;;;;;;;0.50;100.00;99441.56;5075903;28;20066;-72
2021/11/30 03:28:06;;;;;;;10.82;6.85;;;;;;;0.49;100.00;99447.75;5076320;28;20125;-71
2021/11/30 03:30:36;;;;;;;12.35;7.15;;;;;;;0.48;100.00;99459.16;5076160;28;20048;-72
2021/11/30 03:35:50;;;;;;;13.25;6.05;;;;;;;0.67;100.00;99469.03;5076531;28;20041;-72
2021/11/30 03:38:18;;;;;;;9.95;5.63;;;;;;;0.69;100.00;99467.25;5075757;28;20040;-72
2021/11/30 03:40:48;;;;;;;9.65;5.93;;;;;;;0.67;100.00;99474.28;5076301;28;20040;-72
2021/11/30 03:43:16;;;;;;;9.68;6.30;;;;;;;0.77;100.00;99470.44;5075710;28;20045;-76
2021/11/30 03:45:44;;;;;;;11.93;6.07;;;;;;;0.67;100.00;99469.03;5075863;28;20068;-72
2021/11/30 03:48:13;;;;;;;9.90;5.60;;;;;;;0.63;100.00;99472.66;5076261;28;20083;-71
2021/11/30 03:50:44;;;;;;;9.85;5.55;;;;;;;0.57;100.00;99458.81;5076074;28;20489;-72
2021/11/30 03:53:15;;;;;;;13.38;5.95;;;;;;;0.48;100.00;99459.16;5076072;28;20040;-72
2021/11/30 03:55:43;;;;;;;10.60;5.93;;;;;;;0.49;100.00;99470.50;5076062;28;20470;-72
2021/11/30 03:58:13;;;;;;;6.97;4.28;;;;;;;0.45;100.00;99474.09;5075929;28;20059;-72
2021/11/30 04:00:42;;;;;;;9.13;4.80;;;;;;;0.39;100.00;99480.44;5075603;28;20228;-74
2021/11/30 04:03:11;;;;;;;11.57;5.45;;;;;;;0.47;100.00;99482.78;5074610;28;20064;-76
2021/11/30 04:05:39;;;;;;;9.05;5.13;;;;;;;0.39;100.00;99482.19;5074383;28;20068;-75
2021/11/30 04:08:07;;;;;;;10.82;5.60;;;;;;;0.45;100.00;99480.22;5074716;28;20102;-75
2021/11/30 04:10:36;;;;;;;9.73;5.35;;;;;;;0.45;100.00;99482.84;5074313;28;20036;-75
2021/11/30 04:13:04;;;;;;;10.50;5.22;;;;;;;0.49;100.00;99481.84;5074079;28;20036;-76
2021/11/30 04:15:34;;;;;;;7.78;4.97;;;;;;;0.50;100.00;99474.84;5074213;28;20047;-74
2021/11/30 04:18:02;;;;;;;9.07;5.10;;;;;;;0.49;100.00;99481.00;5074363;28;20486;-72
2021/11/30 04:20:33;;;;;;;11.27;5.47;;;;;;;0.49;100.00;99497.59;5073944;28;20483;-71
2021/11/30 04:23:01;;;;;;;9.55;5.30;;;;;;;0.56;100.00;99485.13;5074106;28;20072;-72
2021/11/30 04:25:30;;;;;;;9.57;5.75;;;;;;;0.52;100.00;99489.63;5073652;28;20101;-73
2021/11/30 04:27:58;;;;;;;12.10;5.40;;;;;;;0.57;100.00;99495.56;5074065;28;20076;-71
2021/11/30 04:30:26;;;;;;;10.73;5.55;;;;;;;0.56;100.00;99483.34;5073997;28;20037;-71
2021/11/30 04:32:56;;;;;;;9.05;5.53;;;;;;;0.55;100.00;99496.53;5073843;28;20098;-71
2021/11/30 04:35:25;;;;;;;9.13;5.13;;;;;;;0.51;100.00;99490.53;5073893;28;20555;-72
2021/11/30 04:37:54;;;;;;;8.25;5.07;;;;;;;0.52;100.00;99492.25;5074177;28;20124;-74
2021/11/30 04:40:22;;;;;;;7.60;4.00;;;;;;;0.48;100.00;99506.38;5073513;28;20049;-75
2021/11/30 04:42:51;;;;;;;8.35;5.10;;;;;;;0.45;100.00;99511.69;5074172;28;20426;-75
2021/11/30 04:45:24;;;;;;;9.68;5.28;;;;;;;0.47;100.00;99512.50;5074116;28;20388;-75
2021/11/30 04:47:55;;;;;;;10.60;5.28;;;;;;;0.49;100.00;99512.47;5074230;28;20041;-76
2021/11/30 04:50:29;;;;;;;10.90;5.68;;;;;;;0.51;100.00;99505.41;5073480;28;20136;-76
2021/11/30 04:52:59;;;;;;;10.88;5.20;;;;;;;0.42;100.00;99506.56;5073620;28;20037;-76
2021/11/30 04:55:29;;;;;;;9.02;5.53;;;;;;;0.44;100.00;99502.13;5073697;28;20048;-75
2021/11/30 04:58:01;;;;;;;10.45;3.85;;;;;;;0.50;100.00;99512.44;5073725;28;20047;-76
2021/11/30 05:00:31;;;;;;;11.25;6.00;;;;;;;0.49;100.00;99523.84;5073597;28;20040;-76
2021/11/30 05:03:53;;;;;;;9.52;5.70;;;;;;;0.50;100.00;99536.03;5111126;27;20861;-73
2021/11/30 05:06:21;;;;;;;9.00;5.28;;;;;;;0.54;100.00;99524.53;5111076;28;20044;-77
2021/11/30 05:08:50;;;;;;;11.32;4.95;;;;;;;0.61;100.00;99532.22;5110834;28;20040;-75
2021/11/30 05:11:18;;;;;;;8.40;4.45;;;;;;;0.62;100.00;99531.31;5110964;28;20067;-75
2021/11/30 05:13:46;;;;;;;9.73;5.30;;;;;;;0.57;100.00;99534.06;5110639;28;20056;-76
2021/11/30 05:16:15;;;;;;;11.60;6.07;;;;;;;0.54;100.00;99535.03;5110540;28;20074;-75
2021/11/30 05:18:43;;;;;;;13.00;5.65;;;;;;;0.49;100.00;99542.19;5110210;28;20044;-73
2021/11/30 05:21:13;;;;;;;10.30;5.72;;;;;;;0.47;100.00;99541.38;5110783;28;20101;-72
2021/11/30 05:23:42;;;;;;;11.27;5.82;;;;;;;0.43;100.00;99539.75;5110595;28;20047;-74
2021/11/30 05:26:11;;;;;;;9.15;5.82;;;;;;;0.40;100.00;99545.09;5110548;28;20469;-72
2021/11/30 05:28:41;;;;;;;11.25;6.18;;;;;;;0.35;100.00;99547.00;5110351;28;20040;-73
2021/11/30 05:31:13;;;;;;;9.15;5.65;;;;;;;0.39;100.00;99553.88;5110608;28;20393;-71
2021/11/30 05:33:45;;;;;;;11.40;6.00;;;;;;;0.48;100.00;99564.09;5108690;28;20066;-72
2021/11/30 05:36:15;;;;;;;11.50;5.68;;;;;;;0.41;100.00;99573.06;5110222;28;20100;-76
2021/11/30 05:38:43;;;;;;;10.27;5.63;;;;;;;0.34;100.00;99566.25;5110087;28;20122;-76
2021/11/30 05:41:11;;;;;;;10.63;5.38;;;;;;;0.41;100.00;99573.06;5110327;28;20058;-73
2021/11/30 05:43:39;;;;;;;10.30;6.05;;;;;;;0.39;100.00;99579.25;5109731;28;20119;-74
2021/11/30 05:46:08;;;;;;;11.50;6.53;;;;;;;0.32;100.00;99568.09;5110363;28;20123;-71
2021/11/30 05:48:36;;;;;;;9.77;5.93;;;;;;;0.49;100.00;99580.72;5109977;28;20047;-72
2021/11/30 05:51:06;;;;;;;11.57;6.80;;;;;;;0.50;100.00;99585.91;5110174;28;20048;-71
2021/11/30 05:53:37;;;;;;;9.90;5.72;;;;;;;0.57;100.00;99595.28;5109923;28;20504;-72
2021/11/30 05:56:08;;;;;;;12.15;6.57;;;;;;;0.41;100.00;99588.81;5110035;28;20051;-72
2021/11/30 05:58:40;;;;;;;14.20;6.53;;;;;;;0.36;100.00;99585.44;5108838;28;20055;-72
2021/11/30 06:01:12;;;;;;;10.77;5.95;;;;;;;0.46;100.00;99581.63;5110072;28;20098;-72
2021/11/30 06:03:58;;;;;;;12.55;6.63;;;;;;;0.49;100.00;99578.09;5109538;28;20044;-74
2021/11/30 06:06:28;;;;;;;12.20;6.30;;;;;;;0.53;100.00;99584.94;5109847;28;20101;-76
2021/11/30 06:08:59;;;;;;;10.85;6.40;;;;;;;0.40;100.00;99580.97;5110000;28;20044;-72
2021/11/30 06:11:28;;;;;;;11.82;6.88;;;;;;;0.47;100.00;99579.88;5108094;28;20470;-77
2021/11/30 06:13:58;;;;;;;11.13;6.00;;;;;;;0.48;100.00;99592.97;5103202;28;20072;-76
2021/11/30 06:16:26;;;;;;;13.98;7.32;;;;;;;0.50;100.00;99593.78;5095841;28;20039;-78
2021/11/30 06:18:55;;;;;;;12.30;6.60;;;;;;;0.60;100.00;99598.75;5095980;28;20044;-73
2021/11/30 06:21:24;;;;;;;12.82;5.93;;;;;;;0.61;100.00;99603.09;5095911;28;20044;-72
2021/11/30 06:23:52;;;;;;;6.85;4.22;;;;;;;0.59;100.00;99599.66;5095246;28;20123;-72
2021/11/30 06:26:22;;;;;;;8.10;3.95;;;;;;;0.64;100.00;99605.63;5095878;28;20040;-74
2021/11/30 06:28:50;;;;;;;12.18;6.13;;;;;;;0.68;100.00;99612.50;5095571;28;20050;-75
2021/11/30 06:31:19;;;;;;;13.40;7.00;;;;;;;0.73;100.00;99623.72;5095657;28;20048;-75
2021/11/30 06:33:47;;;;;;;15.25;7.13;;;;;;;0.74;100.00;99628.91;5095598;28;20540;-74
2021/11/30 06:36:15;;;;;;;13.88;7.53;;;;;;;0.81;100.00;99632.22;5095545;28;20098;-75
2021/11/30 06:38:43;;;;;;;8.98;5.40;;;;;;;0.91;100.00;99625.78;5095588;28;20098;-71
2021/11/30 06:41:12;;;;;;;12.82;7.10;;;;;;;0.90;100.00;99625.84;5095450;28;20047;-70
2021/11/30 06:43:41;;;;;;;12.95;7.22;;;;;;;0.82;100.00;99624.28;5095416;28;20119;-71
2021/11/30 06:46:10;;;;;;;11.00;6.32;;;;;;;0.78;100.00;99603.44;5095612;28;20036;-75
2021/11/30 06:48:39;;;;;;;12.40;6.78;;;;;;;0.85;100.00;99629.44;5095377;28;20070;-76
2021/11/30 06:51:07;;;;;;;14.38;6.85;;;;;;;0.84;100.00;99629.50;5095511;28;20044;-73
2021/11/30 06:53:36;;;;;;;13.90;7.45;;;;;;;0.85;100.00;99620.72;5095329;28;20051;-74
2021/11/30 06:56:06;;;;;;;13.52;7.35;;;;;;;0.83;100.00;99612.88;5095700;28;20423;-74
2021/11/30 06:58:34;;;;;;;11.57;6.38;;;;;;;0.93;100.00;99623.97;5095435;28;20131;-78
2021/11/30 07:01:04;;;;;;;17.30;7.30;;;;;;;0.99;100.00;99623.78;5095064;28;20101;-74
2021/11/30 07:03:33;;;;;;;12.35;5.65;;;;;;;1.05;100.00;99623.56;5094975;28;20044;-77
2021/11/30 07:06:06;;;;;;;8.68;5.20;;;;;;;0.97;100.00;99628.22;5095518;28;20050;-75
2021/11/30 07:08:49;;;;;;;14.13;7.78;;;;;;;0.98;100.00;99632.56;5095145;28;20035;-70
2021/11/30 07:11:34;;;;;;;14.48;7.65;;;;;;;0.94;100.00;99620.44;5095228;28;20043;-73
2021/11/30 07:14:02;;;;;;;17.05;7.60;;;;;;;1.03;100.00;99635.03;5094778;28;20493;-72
2021/11/30 07:16:32;;;;;;;9.52;5.57;;;;;;;1.04;100.00;99623.63;5094786;28;20044;-73
2021/11/30 07:19:01;;;;;;;13.40;7.22;;;;;;;1.06;100.00;99634.94;5095225;28;20481;-74
2021/11/30 07:21:30;;;;;;;14.57;7.50;;;;;;;1.12;100.00;99633.00;5094851;28;20068;-75
2021/11/30 07:23:58;;;;;;;14.80;7.20;;;;;;;1.22;100.00;99619.56;5094371;28;20480;-74
2021/11/30 07:26:29;;;;;;;9.68;5.50;;;;;;;1.33;100.00;99627.94;5095684;28;20093;-74
2021/11/30 07:28:59;;;;;;;14.75;7.72;;;;;;;1.41;100.00;99626.78;5098119;28;20142;-77
2021/11/30 07:31:27;;;;;;;13.18;6.72;;;;;;;1.41;100.00;99632.06;5094509;28;20110;-72
2021/11/30 07:34:00;;;;;;;12.20;5.93;;;;;;;1.36;100.00;99615.59;5094471;28;20521;-72
2021/11/30 07:36:28;;;;;;;10.67;5.90;;;;;;;1.32;100.00;99610.47;5094800;28;20396;-72
2021/11/30 07:38:57;;;;;;;12.38;6.78;;;;;;;1.33;100.00;99606.94;5094315;28;20151;-72
2021/11/30 07:41:26;;;;;;;13.07;6.72;;;;;;;1.35;100.00;99616.50;5094300;28;20056;-72
2021/11/30 07:43:54;;;;;;;14.00;6.95;;;;;;;1.38;100.00;99623.41;5093780;28;20040;-73
2021/11/30 07:46:22;;;;;;;12.55;6.90;;;;;;;1.55;100.00;99631.63;5094105;28;20048;-72
2021/11/30 07:48:50;;;;;;;10.77;6.57;;;;;;;1.60;100.00;99634.94;5094295;28;20040;-72
2021/11/30 07:51:20;;;;;;;11.57;5.60;;;;;;;1.69;100.00;99632.00;5094327;28;20044;-72
2021/11/30 07:53:49;;;;;;;12.13;6.38;;;;;;;1.80;100.00;99633.41;5093077;28;20048;-72
2021/11/30 07:56:17;;;;;;;10.45;5.45;;;;;;;1.80;100.00;99633.41;5094317;28;20044;-70
2021/11/30 07:58:45;;;;;;;14.35;6.45;;;;;;;1.79;100.00;99639.56;5093960;28;20044;-72
2021/11/30 08:01:15;;;;;;;10.90;6.28;;;;;;;1.83;100.00;99634.16;5094115;28;20044;-72
2021/11/30 08:03:44;;;;;;;13.13;7.05;;;;;;;1.83;100.00;99642.03;5093735;28;20055;-72
2021/11/30 08:06:13;;;;;;;15.98;6.70;;;;;;;1.83;100.00;99654.31;5093403;28;20117;-72
2021/11/30 08:08:42;;;;;;;12.30;6.70;;;;;;;1.89;100.00;99656.75;5093427;28;20044;-72
2021/11/30 08:11:11;;;;;;;11.95;6.55;;;;;;;1.91;100.00;99662.81;5093710;28;20101;-71
2021/11/30 08:13:40;;;;;;;7.30;3.35;;;;;;;1.98;100.00;99656.44;5093647;28;20072;-72
2021/11/30 08:16:09;;;;;;;13.60;5.85;;;;;;;2.01;100.00;99661.59;5093734;28;20040;-71
2021/11/30 08:18:37;;;;;;;11.18;6.10;;;;;;;2.01;100.00;99658.97;5093619;28;20044;-71
2021/11/30 08:21:06;;;;;;;11.10;6.10;;;;;;;1.97;100.00;99654.72;5093456;28;20517;-71
2021/11/30 08:23:35;;;;;;;10.18;4.53;;;;;;;2.05;100.00;99654.47;5092521;28;20052;-71
2021/11/30 08:26:04;;;;;;;9.80;5.20;;;;;;;2.03;100.00;99651.91;5093485;28;20477;-71
2021/11/30 08:28:33;;;;;;;10.80;6.10;;;;;;;2.07;100.00;99645.59;5093353;28;20052;-71
2021/11/30 08:31:01;;;;;;;7.07;4.00;;;;;;;2.09;100.00;99640.28;5093101;28;20495;-71
2021/11/30 08:33:29;;;;;;;6.00;2.70;;;;;;;2.14;100.00;99633.09;5093145;28;20082;-72
2021/11/30 08:35:57;;;;;;;7.22;4.30;;;;;;;2.28;100.00;99658.00;5093299;28;20040;-72
2021/11/30 08:38:26;;;;;;;6.90;4.00;;;;;;;2.35;100.00;99656.00;5093239;28;20125;-71
2021/11/30 08:40:55;;;;;;;6.15;3.65;;;;;;;2.52;100.00;99650.13;5092967;28;20373;-71
2021/11/30 08:43:25;;;;;;;8.68;3.95;;;;;;;2.52;100.00;99661.53;5093177;28;20420;-70
2021/11/30 08:45:54;;;;;;;6.88;3.17;;;;;;;2.45;100.00;99653.91;5093262;28;20564;-71
2021/11/30 08:48:24;;;;;;;10.77;5.50;;;;;;;2.48;100.00;99645.88;5093550;28;20036;-71
2021/11/30 08:51:12;;;;;;;9.68;5.68;;;;;;;2.40;100.00;99655.81;5094122;28;20052;-71
2021/11/30 08:53:43;;;;;;;7.72;4.10;;;;;;;2.32;100.00;99660.50;5092942;28;20043;-72
2021/11/30 08:56:12;;;;;;;9.77;5.72;;;;;;;2.41;100.00;99657.53;5093297;28;20048;-70
2021/11/30 08:58:42;;;;;;;8.20;5.20;;;;;;;2.53;100.00;99651.84;5093348;28;20040;-71
2021/11/30 09:01:10;;;;;;;11.50;5.93;;;;;;;2.59;100.00;99648.97;5093327;28;20044;-70
2021/11/30 09:03:41;;;;;;;11.20;6.60;;;;;;;2.37;100.00;99641.00;5093131;28;20067;-76
2021/11/30 09:06:10;;;;;;;8.93;5.55;;;;;;;2.27;100.00;99656.28;5093260;28;20093;-71
2021/11/30 09:08:38;;;;;;;10.45;6.22;;;;;;;2.20;100.00;99652.13;5092925;28;20101;-71
2021/11/30 09:11:06;;;;;;;9.98;5.03;;;;;;;2.10;100.00;99648.13;5092637;28;20083;-70
2021/11/30 09:13:35;;;;;;;10.15;4.63;;;;;;;2.12;100.00;99646.28;5093208;28;20040;-71
2021/11/30 09:16:05;;;;;;;10.52;6.05;;;;;;;2.11;100.00;99649.81;5092672;28;20044;-71
2021/11/30 09:18:33;;;;;;;10.50;5.68;;;;;;;2.24;100.00;99645.88;5092234;28;20052;-71
2021/11/30 09:21:01;;;;;;;12.68;5.95;;;;;;;2.26;100.00;99641.41;5092855;28;20040;-71
2021/11/30 09:23:30;;;;;;;10.70;5.43;;;;;;;2.39;100.00;99640.94;5092871;28;20040;-71
2021/11/30 09:25:59;;;;;;;6.95;4.05;;;;;;;2.48;100.00;99645.88;5092443;28;20431;-71
2021/11/30 09:28:28;;;;;;;10.02;5.63;;;;;;;2.58;100.00;99631.47;5092796;28;20138;-71
2021/11/30 09:30:56;;;;;;;10.65;5.38;;;;;;;2.55;100.00;99628.94;5092862;28;20043;-71
2021/11/30 09:34:02;;;;;;;7.40;4.22;;;;;;;2.60;100.00;99621.72;5092969;28;20048;-71
2021/11/30 09:36:32;;;;;;;6.65;3.35;;;;;;;2.75;100.00;99620.28;5093137;28;20071;-71
2021/11/30 09:39:02;;;;;;;7.93;4.68;;;;;;;2.69;100.00;99624.00;5093231;28;20041;-72
2021/11/30 09:41:31;;;;;;;8.15;4.43;;;;;;;2.73;100.00;99625.63;5092620;28;20122;-71
2021/11/30 09:44:00;;;;;;;8.38;4.47;;;;;;;2.71;100.00;99613.44;5092520;28;20390;-72
2021/11/30 09:46:29;;;;;;;7.45;4.20;;;;;;;2.75;100.00;99612.41;5092597;28;20047;-71
2021/11/30 09:48:57;;;;;;;5.18;2.90;;;;;;;2.82;100.00;99598.09;5093589;28;20427;-71
2021/11/30 09:51:27;;;;;;;6.55;3.83;;;;;;;2.83;100.00;99608.56;5096482;28;20550;-71
2021/11/30 09:53:55;;;;;;;4.88;2.85;;;;;;;2.81;100.00;99605.13;5096516;28;20397;-71
2021/11/30 09:56:24;;;;;;;4.95;3.45;;;;;;;2.82;100.00;99582.28;5096272;28;20066;-71
2021/11/30 09:58:52;;;;;;;8.45;3.70;;;;;;;2.87;100.00;99578.53;5096308;28;20048;-72
2021/11/30 10:01:21;;;;;;;6.53;3.75;;;;;;;2.98;100.00;99585.16;5096376;28;20389;-72
2021/11/30 10:03:50;;;;;;;5.82;3.92;;;;;;;2.96;100.00;99571.19;5096389;28;20132;-72
2021/11/30 10:06:20;;;;;;;7.28;4.28;;;;;;;3.01;100.00;99575.38;5096163;28;20047;-71
2021/11/30 10:08:55;;;;;;;4.70;2.53;;;;;;;3.14;98.43;99570.44;5096004;28;20048;-72
2021/11/30 10:11:32;;;;;;;6.60;3.67;;;;;;;3.15;98.74;99578.28;5096386;28;20049;-72
2021/11/30 10:14:16;;;;;;;7.20;4.00;;;;;;;3.23;96.25;99572.72;5096061;28;20067;-71
2021/11/30 10:17:13;;;;;;;6.20;3.03;;;;;;;3.35;95.23;99568.69;5096326;28;20469;-71
2021/11/30 10:19:44;;;;;;;6.00;3.00;;;;;;;3.39;93.64;99563.25;5096023;28;20554;-71
2021/11/30 10:22:12;;;;;;;5.75;3.30;;;;;;;3.42;93.91;99557.00;5096244;28;20128;-72
2021/11/30 10:24:42;;;;;;;4.80;2.30;;;;;;;3.56;92.01;99561.66;5096065;28;20048;-72
2021/11/30 10:27:10;;;;;;;8.50;4.25;;;;;;;3.63;93.25;99565.75;5094441;28;20086;-72
2021/11/30 10:29:43;;;;;;;6.95;3.90;;;;;;;3.75;91.66;99562.59;5096148;28;20044;-71
2021/11/30 10:32:11;;;;;;;7.60;3.10;;;;;;;3.79;90.36;99558.91;5095588;28;20144;-71
2021/11/30 10:34:40;;;;;;;5.65;3.10;;;;;;;3.94;88.99;99558.22;5095630;28;20488;-71
2021/11/30 10:37:11;;;;;;;6.13;3.10;;;;;;;3.99;89.84;99563.31;5095568;28;20151;-72
2021/11/30 10:39:41;;;;;;;7.10;3.83;;;;;;;3.99;90.02;99550.97;5095898;28;20057;-72
2021/11/30 10:42:18;;;;;;;7.47;4.35;;;;;;;3.97;89.65;99558.13;5095575;28;20143;-71
2021/11/30 10:44:47;;;;;;;7.60;3.90;;;;;;;3.96;89.87;99535.28;5095603;28;20115;-72
2021/11/30 10:47:18;;;;;;;8.75;3.97;;;;;;;4.03;89.77;99533.22;5095699;28;20044;-72
2021/11/30 10:49:50;;;;;;;4.97;3.08;;;;;;;4.23;88.46;99540.22;5095830;28;20048;-71
2021/11/30 10:52:22;;;;;;;7.13;4.17;;;;;;;4.22;89.97;99530.59;5095859;28;20093;-71
2021/11/30 10:54:51;;;;;;;6.55;3.30;;;;;;;4.18;88.73;99526.41;5095167;28;20037;-72
2021/11/30 10:57:28;;;;;;;5.88;3.45;;;;;;;4.19;88.97;99499.06;5095257;28;20090;-71
2021/11/30 11:00:08;;;;;;;6.03;2.90;;;;;;;4.26;87.91;99506.66;5095196;28;20085;-71
2021/11/30 11:02:49;;;;;;;5.15;2.63;;;;;;;4.33;87.83;99523.03;5095021;28;20052;-71
2021/11/30 11:05:21;;;;;;;6.47;3.30;;;;;;;4.35;88.44;99505.38;5095300;28;20409;-71
2021/11/30 11:08:01;;;;;;;4.60;2.70;;;;;;;4.39;87.99;99496.38;5095036;28;20048;-71
2021/11/30 11:10:31;;;;;;;7.25;3.60;;;;;;;4.43;88.95;99492.63;5095081;28;20040;-71
2021/11/30 11:13:32;;;;;;;6.00;3.33;;;;;;;4.46;88.72;99496.94;5094872;28;20040;-71
2021/11/30 11:16:02;;;;;;;10.02;3.97;;;;;;;4.43;89.65;99492.63;5094873;28;20048;-72
2021/11/30 11:18:32;;;;;;;7.82;3.10;;;;;;;4.51;89.11;99484.34;5095022;28;20512;-71
2021/11/30 11:21:27;;;;;;;4.90;3.17;;;;;;;4.52;88.92;99460.50;5094769;28;20048;-71
2021/11/30 11:24:01;;;;;;;5.97;3.55;;;;;;;4.59;89.15;99477.78;5085191;28;20488;-72
2021/11/30 11:26:32;;;;;;;5.68;2.88;;;;;;;4.72;88.69;99472.75;5095035;28;20466;-72
2021/11/30 11:29:04;;;;;;;5.55;3.45;;;;;;;4.81;88.18;99460.88;5094739;28;20040;-72
2021/11/30 11:31:36;;;;;;;5.20;3.28;;;;;;;4.78;89.74;99466.34;5094809;28;20105;-71
2021/11/30 11:34:07;;;;;;;5.60;3.20;;;;;;;4.73;89.66;99457.75;5094500;28;20047;-70
2021/11/30 11:36:36;;;;;;;4.50;2.40;;;;;;;4.55;90.80;99452.47;5094760;28;20040;-71
2021/11/30 11:39:05;;;;;;;3.40;2.22;;;;;;;4.39;92.11;99450.63;5094098;28;20044;-70
2021/11/30 11:41:34;;;;;;;5.18;3.08;;;;;;;4.46;92.69;99452.91;5094521;28;20397;-70
2021/11/30 11:44:05;;;;;;;3.05;1.95;;;;;;;4.55;92.01;99449.81;5094004;28;20040;-71
2021/11/30 11:46:35;;;;;;;5.53;3.00;;;;;;;4.62;91.76;99454.78;5094489;28;20501;-71
2021/11/30 11:49:05;;;;;;;3.63;2.20;;;;;;;4.71;92.62;99449.06;5093801;28;20040;-72
2021/11/30 11:51:37;;;;;;;3.50;2.13;;;;;;;4.70;93.58;99447.34;5095531;28;20044;-72